This is the latest recevied weather packets stored in our database for station/object KO5MO-4. If no packets are shown the sender has not sent any weather packets the latest 10 day(s).
| Time | Temp. | Humidity | Pressure | Rain* | Wind** | Luminosity | Snow |
|---|---|---|---|---|---|---|---|
| 1777200660 | 19.44° C | 36% | 1004.3 hPa | 0 mm | - | - | - |
| 1777199160 | 20.56° C | 34% | 1003.9 hPa | 0 mm | - | - | - |
| 1777198560 | 20.56° C | 34% | 1003.7 hPa | 0 mm | - | - | - |
| 1777197960 | 21.11° C | 34% | 1003.7 hPa | 0 mm | - | - | - |
| 1777197060 | 21.11° C | 34% | 1003.7 hPa | 0 mm | - | - | - |
| 1777196760 | 21.67° C | 34% | 1003.6 hPa | 0 mm | - | - | - |
| 1777196460 | 21.67° C | 34% | 1003.7 hPa | 0 mm | - | - | - |
| 1777195260 | 21.67° C | 33% | 1003.9 hPa | 0 mm | - | - | - |
| 1777194960 | 21.67° C | 33% | 1003.9 hPa | 0 mm | - | - | - |
| 1777194060 | 21.67° C | 33% | 1004 hPa | 0 mm | - | - | - |
| 1777193460 | 21.67° C | 33% | 1004.2 hPa | 0 mm | - | - | - |
| 1777192559 | 22.22° C | 32% | 1004.2 hPa | 0 mm | - | - | - |
| 1777192259 | 22.22° C | 32% | 1004.2 hPa | 0 mm | - | - | - |
| 1777191660 | 22.22° C | 34% | 1004.1 hPa | 0 mm | - | - | - |
| 1777191359 | 22.78° C | 33% | 1004.1 hPa | 0 mm | - | - | - |
| 1777190760 | 22.78° C | 33% | 1004.1 hPa | 0 mm | - | - | - |
| 1777190460 | 22.78° C | 31% | 1004.1 hPa | 0 mm | - | - | - |
| 1777189860 | 22.78° C | 29% | 1004.1 hPa | 0 mm | - | - | - |
| 1777189560 | 22.78° C | 28% | 1004.1 hPa | 0 mm | - | - | - |
| 1777189260 | 22.78° C | 27% | 1004.1 hPa | 0 mm | - | - | - |
| 1777188659 | 23.33° C | 25% | 1004.1 hPa | 0 mm | - | - | - |
| 1777187460 | 23.33° C | 20% | 1004.1 hPa | 0 mm | - | - | - |
| 1777187159 | 22.78° C | 18% | 1004.1 hPa | 0 mm | - | - | - |
| 1777186860 | 22.78° C | 17% | 1004.1 hPa | 0 mm | - | - | - |
| 1777186260 | 22.78° C | 17% | 1004 hPa | 0 mm | - | - | - |
* Rain latest hour (hover to see other rain measurements)
** Current wind speed in m/s (hover to see current wind gust speed)